createdAt,value
2018-11-03T00:02:01.253Z,12.83
2018-11-03T00:04:29.943Z,8.73
2018-11-03T00:06:58.531Z,6.90
2018-11-03T00:09:27.415Z,7.60
2018-11-03T00:11:56.518Z,7.50
2018-11-03T00:14:25.134Z,6.93
2018-11-03T00:16:54.744Z,46.97
2018-11-03T00:19:23.385Z,6.90
2018-11-03T00:21:52.072Z,6.80
2018-11-03T00:24:20.653Z,8.67
2018-11-03T00:26:49.235Z,11.40
2018-11-03T00:29:17.719Z,15.17
2018-11-03T00:31:46.271Z,18.73
2018-11-03T00:34:14.788Z,13.80
2018-11-03T00:36:43.269Z,29.33
2018-11-03T00:39:11.845Z,12.90
2018-11-03T00:41:40.421Z,11.17
2018-11-03T00:44:09.727Z,11.77
2018-11-03T00:46:38.167Z,11.37
2018-11-03T00:49:07.404Z,11.60
2018-11-03T00:51:36.293Z,12.00
2018-11-03T00:54:04.783Z,12.43
2018-11-03T00:56:33.364Z,12.03
2018-11-03T00:59:01.838Z,12.47
2018-11-03T01:01:30.591Z,12.40
2018-11-03T01:03:59.212Z,12.33
2018-11-03T01:06:27.692Z,12.60
2018-11-03T01:08:56.095Z,12.10
2018-11-03T01:11:24.546Z,13.37
2018-11-03T01:13:53.095Z,13.20
2018-11-03T01:16:21.605Z,13.53
2018-11-03T01:18:49.993Z,13.87
2018-11-03T01:21:18.477Z,16.67
2018-11-03T01:23:46.942Z,22.77
2018-11-03T01:26:15.278Z,21.13
2018-11-03T01:28:43.805Z,20.70
2018-11-03T01:31:12.291Z,21.37
2018-11-03T01:33:40.669Z,19.07
2018-11-03T01:36:09.138Z,17.87
2018-11-03T01:38:37.636Z,44.07
2018-11-03T01:41:06.106Z,36.83
2018-11-03T01:43:34.494Z,55.77
2018-11-03T01:46:03.065Z,34.83
2018-11-03T01:48:31.465Z,14.37
2018-11-03T01:51:00.624Z,35.23
2018-11-03T01:53:28.986Z,13.10
2018-11-03T01:55:57.410Z,13.47
2018-11-03T01:58:25.783Z,12.87
2018-11-03T02:00:54.188Z,14.07
2018-11-03T02:03:22.551Z,12.73
2018-11-03T02:05:50.949Z,11.80
2018-11-03T02:08:19.501Z,12.20
2018-11-03T02:10:48.086Z,12.70
2018-11-03T02:13:16.553Z,12.37
2018-11-03T02:15:45.042Z,13.73
2018-11-03T02:18:14.096Z,14.70
2018-11-03T02:20:42.618Z,15.70
2018-11-03T02:23:11.207Z,16.83
2018-11-03T02:25:39.676Z,16.60
2018-11-03T02:28:08.268Z,20.27
2018-11-03T02:30:36.897Z,17.13
2018-11-03T02:33:05.289Z,24.87
2018-11-03T02:35:33.683Z,19.30
2018-11-03T02:38:02.804Z,20.07
2018-11-03T02:40:31.163Z,20.77
2018-11-03T02:42:59.653Z,49.93
2018-11-03T02:45:28.059Z,27.87
2018-11-03T02:47:56.515Z,33.37
2018-11-03T02:50:25.000Z,22.13
2018-11-03T02:52:53.471Z,20.33
2018-11-03T02:55:22.541Z,20.17
2018-11-03T02:57:51.061Z,37.30
2018-11-03T03:00:19.416Z,19.53
2018-11-03T03:02:47.911Z,36.90
2018-11-03T03:05:16.386Z,16.27
2018-11-03T03:07:44.758Z,17.93
2018-11-03T03:10:13.170Z,18.30
2018-11-03T03:12:41.627Z,17.43
2018-11-03T03:15:10.072Z,18.23
2018-11-03T03:17:38.703Z,18.43
2018-11-03T03:20:07.110Z,17.80
2018-11-03T03:22:35.493Z,17.20
2018-11-03T03:25:03.913Z,16.70
2018-11-03T03:27:32.522Z,17.07
2018-11-03T03:30:00.989Z,16.73
2018-11-03T03:32:29.383Z,17.43
2018-11-03T03:34:57.791Z,17.30
2018-11-03T03:37:26.202Z,16.10
2018-11-03T03:39:54.570Z,15.03
2018-11-03T03:42:22.994Z,16.10
2018-11-03T03:44:51.626Z,15.67
2018-11-03T03:47:20.063Z,14.53
2018-11-03T03:49:48.539Z,13.87
2018-11-03T03:52:16.956Z,14.83
2018-11-03T03:54:45.383Z,14.07
2018-11-03T03:57:14.000Z,12.93
2018-11-03T03:59:42.458Z,35.60
2018-11-03T04:02:10.836Z,9.73
2018-11-03T04:04:39.219Z,11.23
2018-11-03T04:07:07.680Z,12.60
2018-11-03T04:09:36.113Z,13.97
2018-11-03T04:12:04.747Z,13.40
2018-11-03T04:14:34.161Z,11.80
2018-11-03T04:17:02.547Z,13.73
2018-11-03T04:19:30.918Z,15.60
2018-11-03T04:21:59.406Z,16.10
2018-11-03T04:24:27.786Z,16.23
2018-11-03T04:26:56.174Z,12.70
2018-11-03T04:29:24.633Z,14.03
2018-11-03T04:31:53.006Z,15.60
2018-11-03T04:34:21.419Z,13.30
2018-11-03T04:36:49.868Z,12.33
2018-11-03T04:39:18.368Z,12.70
2018-11-03T04:41:46.737Z,14.87
2018-11-03T04:44:15.112Z,16.43
2018-11-03T04:46:43.629Z,13.50
2018-11-03T04:49:12.001Z,13.40
2018-11-03T04:51:40.571Z,13.27
2018-11-03T04:54:09.005Z,23.93
2018-11-03T04:56:37.491Z,16.73
2018-11-03T04:59:05.892Z,12.20
2018-11-03T05:01:34.266Z,11.97
2018-11-03T05:04:02.649Z,9.30
2018-11-03T05:06:31.021Z,10.57
2018-11-03T05:08:59.510Z,9.83
2018-11-03T05:11:27.888Z,9.97
2018-11-03T05:13:56.351Z,9.47
2018-11-03T05:16:24.951Z,9.60
2018-11-03T05:18:53.326Z,10.30
2018-11-03T05:21:21.737Z,11.07
2018-11-03T05:23:50.186Z,9.70
2018-11-03T05:26:18.568Z,8.80
2018-11-03T05:28:47.149Z,7.40
2018-11-03T05:31:15.540Z,8.17
2018-11-03T05:33:43.921Z,7.00
2018-11-03T05:36:12.379Z,7.47
2018-11-03T05:38:40.863Z,74.47
2018-11-03T05:41:09.351Z,90.27
2018-11-03T05:43:37.746Z,85.67
2018-11-03T05:46:06.221Z,27.40
2018-11-03T05:48:34.670Z,10.30
2018-11-03T05:51:03.154Z,14.27
2018-11-03T05:53:31.646Z,8.57
2018-11-03T05:56:00.229Z,8.57
2018-11-03T05:58:28.617Z,9.47
2018-11-03T06:00:57.204Z,10.33
2018-11-03T06:03:25.671Z,8.87
2018-11-03T06:05:54.034Z,10.50
2018-11-03T06:08:22.429Z,9.60
2018-11-03T06:10:50.901Z,8.93
2018-11-03T06:13:19.273Z,8.63
2018-11-03T06:15:47.664Z,8.33
2018-11-03T06:18:16.027Z,8.03
2018-11-03T06:20:45.295Z,11.00
2018-11-03T06:23:14.054Z,7.93
2018-11-03T06:25:42.455Z,8.30
2018-11-03T06:28:10.824Z,8.90
2018-11-03T06:30:39.251Z,9.83
2018-11-03T06:33:07.735Z,8.70
2018-11-03T06:35:36.093Z,8.43
2018-11-03T06:38:04.725Z,8.30
2018-11-03T06:40:33.249Z,8.00
2018-11-03T06:43:01.662Z,8.77
2018-11-03T06:45:30.051Z,8.27
2018-11-03T06:47:58.440Z,9.10
2018-11-03T06:50:26.908Z,10.50
2018-11-03T06:52:55.384Z,9.67
2018-11-03T06:55:23.891Z,10.10
2018-11-03T06:57:52.350Z,12.50
2018-11-03T07:00:20.744Z,14.20
2018-11-03T07:02:49.223Z,28.87
2018-11-03T07:05:18.045Z,13.20
2018-11-03T07:07:46.416Z,37.43
2018-11-03T07:10:14.850Z,17.30
2018-11-03T07:12:43.700Z,14.03
2018-11-03T07:15:16.451Z,12.47
2018-11-03T07:17:46.939Z,9.87
2018-11-03T07:20:15.774Z,7.30
2018-11-03T07:22:44.152Z,28.53
2018-11-03T07:25:13.723Z,18.53
2018-11-03T07:27:42.304Z,17.37
2018-11-03T07:30:10.630Z,9.07
2018-11-03T07:32:38.873Z,6.97
2018-11-03T07:35:07.140Z,9.10
2018-11-03T07:37:35.383Z,7.53
2018-11-03T07:40:03.647Z,7.73
2018-11-03T07:42:31.929Z,6.67
2018-11-03T07:45:00.120Z,7.33
2018-11-03T07:47:28.444Z,6.33
2018-11-03T07:49:56.653Z,6.43
2018-11-03T07:52:24.884Z,5.90
2018-11-03T07:54:53.188Z,6.20
2018-11-03T07:57:24.330Z,5.77
2018-11-03T07:59:52.568Z,4.70
2018-11-03T08:02:20.821Z,4.57
2018-11-03T08:04:49.133Z,4.53
2018-11-03T08:07:17.486Z,3.97
2018-11-03T08:09:45.777Z,5.10
2018-11-03T08:12:14.021Z,4.67
2018-11-03T08:14:42.278Z,3.30
2018-11-03T08:17:10.842Z,3.70
2018-11-03T08:19:39.088Z,3.17
2018-11-03T08:22:07.317Z,5.87
2018-11-03T08:24:35.513Z,7.27
2018-11-03T08:27:03.735Z,7.23
2018-11-03T08:29:32.028Z,8.43
2018-11-03T08:32:00.270Z,7.00
2018-11-03T08:34:28.526Z,6.30
2018-11-03T08:36:56.750Z,7.70
2018-11-03T08:39:25.042Z,6.70
2018-11-03T08:41:53.260Z,4.40
2018-11-03T08:44:21.524Z,4.27
2018-11-03T08:46:49.768Z,4.47
2018-11-03T08:49:18.024Z,3.80
2018-11-03T08:51:46.318Z,3.50
2018-11-03T08:54:14.585Z,3.27
2018-11-03T08:56:42.876Z,2.93
2018-11-03T08:59:11.235Z,2.27
2018-11-03T09:01:39.475Z,2.80
2018-11-03T09:04:08.141Z,2.27
2018-11-03T09:06:36.513Z,2.47
2018-11-03T09:09:04.891Z,2.40
2018-11-03T09:11:33.250Z,2.00
2018-11-03T09:14:01.477Z,2.60
2018-11-03T09:16:29.690Z,2.43
2018-11-03T09:18:57.951Z,2.80
2018-11-03T09:21:26.204Z,2.23
2018-11-03T09:23:54.437Z,2.60
2018-11-03T09:26:22.677Z,4.60
2018-11-03T09:28:51.344Z,2.43
2018-11-03T09:31:19.585Z,2.67
2018-11-03T09:33:48.108Z,3.30
2018-11-03T09:36:16.542Z,2.87
2018-11-03T09:38:44.869Z,3.17
2018-11-03T09:41:13.033Z,2.40
2018-11-03T09:43:41.254Z,2.40
2018-11-03T09:46:09.553Z,2.50
2018-11-03T09:48:37.800Z,2.80
2018-11-03T09:51:06.169Z,2.63
2018-11-03T09:53:34.443Z,2.23
2018-11-03T09:56:02.689Z,2.60
2018-11-03T09:58:30.905Z,2.67
2018-11-03T10:00:59.169Z,2.50
2018-11-03T10:03:27.573Z,2.20
2018-11-03T10:05:55.815Z,2.20
2018-11-03T10:08:24.168Z,2.00
2018-11-03T10:10:52.423Z,2.13
2018-11-03T10:13:20.643Z,2.20
2018-11-03T10:15:48.962Z,2.30
2018-11-03T10:18:17.143Z,2.00
2018-11-03T10:20:45.366Z,2.10
2018-11-03T10:23:13.600Z,2.20
2018-11-03T10:25:48.106Z,2.37
2018-11-03T10:28:16.319Z,2.70
2018-11-03T10:30:44.559Z,2.03
2018-11-03T10:33:12.861Z,2.23
2018-11-03T10:35:41.164Z,2.50
2018-11-03T10:38:09.434Z,2.40
2018-11-03T10:40:37.691Z,2.10
2018-11-03T10:43:05.923Z,2.20
2018-11-03T10:45:34.207Z,2.27
2018-11-03T10:48:02.552Z,2.00
2018-11-03T10:50:30.846Z,2.03
2018-11-03T10:52:59.097Z,2.00
2018-11-03T10:55:27.459Z,3.10
2018-11-03T10:57:55.711Z,2.87
2018-11-03T11:06:43.595Z,2.60
2018-11-03T17:09:17.318Z,7.27
2018-11-03T17:11:45.904Z,6.70
2018-11-03T17:14:14.587Z,6.30
2018-11-03T17:16:43.170Z,7.53
2018-11-03T17:19:11.754Z,7.03
2018-11-03T17:21:41.659Z,7.23
2018-11-03T17:24:10.246Z,8.00
2018-11-03T17:26:39.248Z,6.93
2018-11-03T17:29:08.906Z,7.90
2018-11-03T17:31:37.949Z,8.90
2018-11-03T17:34:06.594Z,7.90
2018-11-03T17:36:35.523Z,7.20
2018-11-03T17:39:04.329Z,8.60
2018-11-03T17:41:33.408Z,7.93
2018-11-03T17:44:02.147Z,7.13
2018-11-03T17:46:31.219Z,7.70
2018-11-03T17:48:59.888Z,8.23
2018-11-03T17:51:28.660Z,6.67
2018-11-03T17:53:58.393Z,6.33
2018-11-03T17:56:27.158Z,6.90
2018-11-03T17:58:55.538Z,7.23
2018-11-03T18:01:24.148Z,8.87
2018-11-03T18:03:52.488Z,12.53
2018-11-03T18:06:23.234Z,10.53
2018-11-03T18:08:51.916Z,11.73
2018-11-03T18:11:20.493Z,8.97
2018-11-03T18:13:48.985Z,9.67
2018-11-03T18:16:17.631Z,10.40
2018-11-03T18:18:46.351Z,10.03
2018-11-03T18:21:15.318Z,9.77
2018-11-03T18:23:43.877Z,10.80
2018-11-03T18:26:12.656Z,9.50
2018-11-03T18:28:40.934Z,9.57
2018-11-03T18:31:09.653Z,9.00
2018-11-03T18:33:38.973Z,13.90
2018-11-03T18:36:07.677Z,9.70
2018-11-03T18:38:36.143Z,7.90
2018-11-03T18:41:05.701Z,8.97
2018-11-03T18:43:36.074Z,9.50
2018-11-03T18:46:04.640Z,8.83
2018-11-03T18:48:33.357Z,8.93
2018-11-03T18:51:02.035Z,11.27
2018-11-03T18:53:30.607Z,11.10
2018-11-03T18:55:59.103Z,14.47
2018-11-03T18:58:27.891Z,10.20
2018-11-03T19:00:56.569Z,8.53
2018-11-03T19:03:25.149Z,14.53
2018-11-03T19:05:53.567Z,9.77
2018-11-03T19:08:23.012Z,12.53
2018-11-03T19:10:51.514Z,13.40
2018-11-03T19:13:20.006Z,11.30
2018-11-03T19:15:49.802Z,9.90
2018-11-03T19:18:20.444Z,12.77
2018-11-03T19:20:49.191Z,9.00
2018-11-03T19:23:17.943Z,9.90
2018-11-03T19:25:47.001Z,12.00
2018-11-03T19:28:17.039Z,8.10
2018-11-03T19:30:45.834Z,8.90
2018-11-03T19:33:14.809Z,11.70
2018-11-03T19:35:44.585Z,7.53
2018-11-03T19:38:14.028Z,7.00
2018-11-03T19:40:45.478Z,8.07
2018-11-03T19:43:14.357Z,6.60
2018-11-03T19:45:44.353Z,6.77
2018-11-03T19:48:14.106Z,6.13
2018-11-03T19:50:43.616Z,6.23
2018-11-03T19:53:13.091Z,6.20
2018-11-03T19:55:43.900Z,5.60
2018-11-03T19:58:14.293Z,6.47
2018-11-03T20:00:43.991Z,5.87
2018-11-03T20:03:14.929Z,8.80
2018-11-03T20:05:45.633Z,6.90
2018-11-03T20:08:15.261Z,8.03
2018-11-03T20:10:44.023Z,10.70
2018-11-03T20:13:14.953Z,7.43
2018-11-03T20:15:43.926Z,6.67
2018-11-03T20:18:14.806Z,6.60
2018-11-03T20:20:44.347Z,6.57
2018-11-03T20:23:13.189Z,6.30
2018-11-03T20:25:42.150Z,5.97
2018-11-03T20:28:11.137Z,6.70
2018-11-03T20:30:39.790Z,6.00
2018-11-03T20:33:08.547Z,5.60
2018-11-03T20:35:37.566Z,6.20
2018-11-03T20:38:08.274Z,5.90
2018-11-03T20:40:37.804Z,5.70
2018-11-03T20:43:06.559Z,5.60
2018-11-03T20:45:37.921Z,5.60
2018-11-03T20:48:07.622Z,6.40
2018-11-03T20:50:36.228Z,6.27
2018-11-03T20:55:44.953Z,5.47
2018-11-03T20:58:15.784Z,5.40
2018-11-03T21:00:45.498Z,5.57
2018-11-03T21:03:16.319Z,5.27
2018-11-03T21:05:45.986Z,6.20
2018-11-03T21:08:15.660Z,5.47
2018-11-03T21:10:44.641Z,5.97
2018-11-03T21:13:15.684Z,5.27
2018-11-03T21:15:45.281Z,5.97
2018-11-03T21:18:15.607Z,5.83
2018-11-03T21:20:45.621Z,5.53
2018-11-03T21:23:15.283Z,5.50
2018-11-03T21:25:46.189Z,5.37
2018-11-03T21:28:16.588Z,6.40
2018-11-03T21:30:46.497Z,5.63
2018-11-03T21:33:16.780Z,5.53
2018-11-03T21:35:46.031Z,5.70
2018-11-03T21:38:16.504Z,5.50
2018-11-03T21:40:46.956Z,5.43
2018-11-03T21:43:16.956Z,6.70
2018-11-03T21:45:48.213Z,5.33
2018-11-03T21:48:20.313Z,6.23
2018-11-03T21:50:50.198Z,5.87
2018-11-03T21:53:19.744Z,5.83
2018-11-03T21:55:48.948Z,5.73
2018-11-03T21:58:17.503Z,5.87
2018-11-03T22:00:46.861Z,5.60
2018-11-03T22:03:15.369Z,5.80
2018-11-03T22:05:43.971Z,5.67
2018-11-03T22:08:12.451Z,5.63
2018-11-03T22:10:42.284Z,5.50
2018-11-03T22:13:10.791Z,5.90
2018-11-03T22:15:40.050Z,5.63
2018-11-03T22:18:08.730Z,6.07
2018-11-03T22:20:37.761Z,5.23
2018-11-03T22:23:07.112Z,5.33
2018-11-03T22:25:35.529Z,5.43
2018-11-03T22:28:04.183Z,5.93
2018-11-03T22:30:32.874Z,5.77
2018-11-03T22:33:01.292Z,5.37
2018-11-03T22:35:29.581Z,5.50
2018-11-03T22:37:57.923Z,6.20
2018-11-03T22:40:26.582Z,5.97
2018-11-03T22:42:54.951Z,5.33
2018-11-03T22:45:23.618Z,6.10
2018-11-03T22:47:51.956Z,5.60
2018-11-03T22:50:20.398Z,5.90
2018-11-03T22:52:48.946Z,6.27
2018-11-03T22:55:17.273Z,5.60
2018-11-03T22:57:45.573Z,5.83
2018-11-03T23:00:14.041Z,6.17
2018-11-03T23:02:42.406Z,6.33
2018-11-03T23:05:10.779Z,6.43
2018-11-03T23:07:39.056Z,6.57
2018-11-03T23:10:07.403Z,6.67
2018-11-03T23:12:35.894Z,6.30
2018-11-03T23:15:04.299Z,6.80
2018-11-03T23:17:32.758Z,6.63
2018-11-03T23:20:01.033Z,6.17
2018-11-03T23:22:29.296Z,7.30
2018-11-03T23:24:57.781Z,6.30
2018-11-03T23:27:26.096Z,6.57
2018-11-03T23:29:54.713Z,6.40
2018-11-03T23:32:23.366Z,5.97
2018-11-03T23:34:51.764Z,6.33
2018-11-03T23:37:20.029Z,6.23
2018-11-03T23:39:48.299Z,6.73
2018-11-03T23:42:16.563Z,6.60
2018-11-03T23:44:44.862Z,6.90
2018-11-03T23:47:13.202Z,6.27
2018-11-03T23:49:41.489Z,6.60
2018-11-03T23:52:09.759Z,6.53
2018-11-03T23:54:39.092Z,6.73
2018-11-03T23:57:07.784Z,6.63
2018-11-03T23:59:37.133Z,6.63
